createdAt,value
2018-06-10T00:04:43.376Z,30.70
2018-06-10T00:09:45.558Z,27.23
2018-06-10T00:14:47.712Z,25.53
2018-06-10T00:19:49.879Z,26.37
2018-06-10T00:24:52.026Z,26.90
2018-06-10T00:29:54.192Z,24.67
2018-06-10T00:34:56.327Z,25.37
2018-06-10T00:39:58.701Z,34.10
2018-06-10T00:45:00.841Z,35.50
2018-06-10T00:50:03.017Z,32.30
2018-06-10T00:55:05.177Z,34.07
2018-06-10T01:00:07.343Z,41.63
2018-06-10T01:05:09.471Z,31.13
2018-06-10T01:10:11.589Z,32.47
2018-06-10T01:15:13.731Z,41.93
2018-06-10T01:20:15.889Z,46.50
2018-06-10T01:25:18.081Z,42.33
2018-06-10T01:30:20.229Z,44.27
2018-06-10T01:35:22.366Z,40.53
2018-06-10T01:40:24.494Z,35.20
2018-06-10T01:45:26.681Z,38.23
2018-06-10T01:50:28.842Z,39.13
2018-06-10T01:55:30.996Z,51.73
2018-06-10T02:00:33.165Z,43.33
2018-06-10T02:05:35.307Z,36.83
2018-06-10T02:10:37.443Z,42.13
2018-06-10T02:15:39.620Z,39.00
2018-06-10T02:20:41.793Z,37.83
2018-06-10T02:25:43.927Z,37.73
2018-06-10T02:30:46.803Z,36.53
2018-06-10T02:35:49.293Z,33.43
2018-06-10T02:40:51.450Z,35.10
2018-06-10T02:45:53.626Z,32.00
2018-06-10T02:50:55.790Z,31.33
2018-06-10T02:55:58.333Z,33.20
2018-06-10T03:01:00.519Z,31.13
2018-06-10T03:06:04.310Z,35.60
2018-06-10T03:11:06.501Z,32.83
2018-06-10T03:16:08.680Z,28.83
2018-06-10T03:21:10.842Z,26.80
2018-06-10T03:26:13.006Z,27.67
2018-06-10T03:31:15.180Z,32.30
2018-06-10T03:36:17.325Z,30.97
2018-06-10T03:41:19.475Z,28.00
2018-06-10T03:46:21.642Z,31.57
2018-06-10T03:51:23.802Z,31.20
2018-06-10T03:56:26.117Z,31.10
2018-06-10T04:01:28.253Z,30.77
2018-06-10T04:06:30.395Z,32.20
2018-06-10T04:11:32.533Z,26.60
2018-06-10T04:16:34.669Z,28.13
2018-06-10T04:21:36.801Z,27.13
2018-06-10T04:26:38.993Z,28.63
2018-06-10T04:31:41.190Z,29.80
2018-06-10T04:36:43.354Z,27.07
2018-06-10T04:41:45.517Z,26.37
2018-06-10T04:46:47.722Z,30.73
2018-06-10T04:51:49.913Z,23.27
2018-06-10T04:56:52.949Z,22.20
2018-06-10T05:01:55.126Z,21.97
2018-06-10T05:06:57.289Z,26.20
2018-06-10T05:11:59.486Z,23.40
2018-06-10T05:17:01.650Z,27.00
2018-06-10T05:22:03.840Z,23.50
2018-06-10T05:27:05.996Z,27.40
2018-06-10T05:32:08.167Z,33.03
2018-06-10T05:37:10.329Z,27.30
2018-06-10T05:42:13.109Z,27.67
2018-06-10T05:47:15.330Z,27.30
2018-06-10T05:52:17.534Z,32.97
2018-06-10T05:57:19.675Z,30.67
2018-06-10T06:02:21.943Z,28.27
2018-06-10T06:07:24.110Z,30.33
2018-06-10T06:12:26.259Z,31.40
2018-06-10T06:17:28.413Z,32.70
2018-06-10T06:22:30.549Z,24.90
2018-06-10T06:27:32.682Z,23.50
2018-06-10T06:32:34.873Z,23.77
2018-06-10T06:37:37.040Z,28.07
2018-06-10T06:42:39.212Z,29.33
2018-06-10T06:47:41.370Z,29.63
2018-06-10T06:52:43.554Z,30.40
2018-06-10T06:57:45.723Z,39.27
2018-06-10T07:02:47.883Z,30.90
2018-06-10T07:07:50.076Z,28.73
2018-06-10T07:12:52.226Z,31.87
2018-06-10T07:17:54.374Z,35.03
2018-06-10T07:22:56.547Z,31.00
2018-06-10T07:27:58.713Z,28.93
2018-06-10T07:33:00.867Z,34.07
2018-06-10T07:38:03.005Z,34.43
2018-06-10T07:43:05.174Z,26.63
2018-06-10T07:48:07.335Z,33.73
2018-06-10T07:53:09.500Z,30.80
2018-06-10T07:58:11.641Z,25.77
2018-06-10T08:03:13.780Z,31.20
2018-06-10T08:08:15.917Z,28.70
2018-06-10T08:13:18.053Z,29.83
2018-06-10T08:18:20.194Z,26.60
2018-06-10T08:23:22.359Z,23.47
2018-06-10T08:28:24.498Z,29.07
2018-06-10T08:33:26.657Z,26.33
2018-06-10T08:38:28.830Z,24.10
2018-06-10T08:43:31.004Z,25.40
2018-06-10T08:48:33.173Z,23.00
2018-06-10T08:53:35.354Z,26.40
2018-06-10T08:58:37.531Z,25.60
2018-06-10T09:03:39.706Z,24.80
2018-06-10T09:08:41.935Z,24.90
2018-06-10T09:13:44.061Z,26.33
2018-06-10T09:18:46.221Z,27.60
2018-06-10T09:23:48.391Z,23.87
2018-06-10T09:28:50.581Z,28.73
2018-06-10T09:33:52.757Z,22.00
2018-06-10T09:38:54.930Z,23.60
2018-06-10T09:43:57.106Z,25.27
2018-06-10T09:48:59.328Z,26.60
2018-06-10T09:54:01.510Z,23.10
2018-06-10T09:59:03.708Z,23.00
2018-06-10T10:04:05.877Z,27.00
2018-06-10T10:09:08.038Z,28.13
2018-06-10T10:14:10.194Z,24.53
2018-06-10T10:19:12.345Z,23.93
2018-06-10T10:24:14.518Z,22.80
2018-06-10T10:29:16.694Z,21.07
2018-06-10T10:34:18.821Z,22.00
2018-06-10T10:39:20.966Z,22.90
2018-06-10T10:44:23.170Z,22.20
2018-06-10T10:49:25.301Z,23.63
2018-06-10T10:54:27.475Z,19.93
2018-06-10T10:59:29.590Z,22.60
2018-06-10T11:04:31.738Z,18.67
2018-06-10T11:09:33.877Z,19.90
2018-06-10T11:14:36.002Z,19.87
2018-06-10T11:19:38.171Z,21.23
2018-06-10T11:24:40.320Z,21.60
2018-06-10T11:29:42.519Z,21.33
2018-06-10T11:34:44.712Z,20.30
2018-06-10T11:39:46.862Z,16.93
2018-06-10T11:44:49.056Z,16.87
2018-06-10T11:49:51.218Z,22.53
2018-06-10T11:54:53.421Z,17.60
2018-06-10T11:59:55.598Z,15.43
2018-06-10T12:04:59.255Z,14.87
2018-06-10T12:10:01.469Z,12.90
2018-06-10T12:15:03.700Z,13.67
2018-06-10T12:20:05.905Z,13.37
2018-06-10T12:25:08.087Z,14.53
2018-06-10T12:30:10.241Z,14.40
2018-06-10T12:35:13.848Z,13.80
2018-06-10T12:40:16.013Z,11.23
2018-06-10T12:45:18.205Z,11.63
2018-06-10T12:50:20.377Z,10.30
2018-06-10T12:55:22.591Z,13.03
2018-06-10T13:00:24.766Z,12.70
2018-06-10T13:05:26.933Z,12.50
2018-06-10T13:10:29.133Z,9.87
2018-06-10T13:15:31.325Z,10.37
2018-06-10T13:20:33.497Z,10.20
2018-06-10T13:25:35.661Z,9.67
2018-06-10T13:30:37.862Z,19.83
2018-06-10T13:35:40.063Z,10.63
2018-06-10T13:40:42.262Z,10.97
2018-06-10T13:45:44.447Z,9.60
2018-06-10T13:50:47.344Z,9.33
2018-06-10T13:55:49.586Z,9.20
2018-06-10T14:00:51.709Z,9.50
2018-06-10T14:05:53.893Z,9.43
2018-06-10T14:10:56.113Z,9.60
2018-06-10T14:15:58.297Z,10.00
2018-06-10T14:21:00.476Z,11.47
2018-06-10T14:26:02.692Z,9.83
2018-06-10T14:31:04.891Z,9.20
2018-06-10T14:36:07.058Z,8.70
2018-06-10T14:41:09.227Z,11.40
2018-06-10T14:46:11.402Z,8.80
2018-06-10T14:51:13.597Z,10.83
2018-06-10T14:56:15.781Z,8.13
2018-06-10T15:01:17.966Z,7.30
2018-06-10T15:06:20.169Z,7.80
2018-06-10T15:11:22.365Z,8.73
2018-06-10T15:16:24.637Z,7.60
2018-06-10T15:21:26.934Z,6.73
2018-06-10T15:26:29.121Z,7.93
2018-06-10T15:31:31.410Z,6.90
2018-06-10T15:36:33.571Z,7.47
2018-06-10T15:41:35.909Z,7.90
2018-06-10T15:46:38.105Z,8.00
2018-06-10T15:51:40.246Z,7.50
2018-06-10T15:56:42.421Z,8.60
2018-06-10T16:01:44.574Z,8.30
2018-06-10T16:06:46.725Z,9.80
2018-06-10T16:11:48.900Z,8.80
2018-06-10T16:16:51.134Z,18.00
2018-06-10T16:21:53.210Z,10.73
2018-06-10T16:26:55.384Z,8.93
2018-06-10T16:31:57.560Z,9.70
2018-06-10T16:36:59.776Z,11.53
2018-06-10T16:42:01.934Z,15.40
2018-06-10T16:47:04.153Z,10.97
2018-06-10T16:52:06.342Z,14.50
2018-06-10T16:57:08.518Z,10.90
2018-06-10T17:02:10.671Z,12.93
2018-06-10T17:07:12.857Z,13.17
2018-06-10T17:12:15.036Z,17.80
2018-06-10T17:17:17.177Z,15.53
2018-06-10T17:22:19.359Z,11.60
2018-06-10T17:27:21.510Z,10.43
2018-06-10T17:32:24.039Z,10.90
2018-06-10T17:37:26.218Z,11.97
2018-06-10T17:42:28.373Z,12.43
2018-06-10T17:47:30.547Z,15.63
2018-06-10T17:52:32.772Z,11.03
2018-06-10T17:57:34.918Z,10.20
2018-06-10T18:02:37.078Z,11.03
2018-06-10T18:07:39.226Z,8.80
2018-06-10T18:12:41.391Z,15.17
2018-06-10T18:17:43.524Z,12.80
2018-06-10T18:22:45.674Z,11.43
2018-06-10T18:27:47.844Z,10.17
2018-06-10T18:32:50.309Z,11.03
2018-06-10T18:37:52.451Z,11.90
2018-06-10T18:42:54.589Z,11.40
2018-06-10T18:47:56.793Z,19.10
2018-06-10T18:52:58.913Z,14.23
2018-06-10T18:58:01.430Z,11.37
2018-06-10T19:03:03.638Z,13.17
2018-06-10T19:08:06.152Z,13.30
2018-06-10T19:13:08.288Z,12.87
2018-06-10T19:18:10.599Z,11.97
2018-06-10T19:23:12.770Z,11.53
2018-06-10T19:28:14.897Z,13.03
2018-06-10T19:33:17.074Z,11.50
2018-06-10T19:38:19.327Z,10.87
2018-06-10T19:43:21.481Z,12.03
2018-06-10T19:48:23.813Z,11.43
2018-06-10T19:53:26.367Z,11.30
2018-06-10T19:58:28.545Z,11.80
2018-06-10T20:03:30.861Z,10.17
2018-06-10T20:08:33.018Z,11.67
2018-06-10T20:13:35.349Z,13.23
2018-06-10T20:18:37.526Z,15.07
2018-06-10T20:23:39.745Z,13.10
2018-06-10T20:28:41.937Z,11.23
2018-06-10T20:33:44.093Z,15.87
2018-06-10T20:38:46.277Z,13.07
2018-06-10T20:43:48.469Z,14.33
2018-06-10T20:48:50.638Z,12.80
2018-06-10T20:53:52.806Z,12.73
2018-06-10T20:58:54.955Z,14.50
2018-06-10T21:03:57.166Z,12.90
2018-06-10T21:08:59.364Z,14.17
2018-06-10T21:14:01.531Z,12.17
2018-06-10T21:19:03.698Z,12.73
2018-06-10T21:24:05.890Z,12.57
2018-06-10T21:29:08.063Z,13.67
2018-06-10T21:34:10.235Z,14.80
2018-06-10T21:39:12.401Z,14.60
2018-06-10T21:44:14.530Z,18.27
2018-06-10T21:49:16.694Z,22.10
2018-06-10T21:54:18.817Z,18.47
2018-06-10T21:59:20.984Z,15.80
2018-06-10T22:04:23.147Z,23.37
2018-06-10T22:09:25.314Z,20.13
2018-06-10T22:14:27.494Z,18.50
2018-06-10T22:19:29.651Z,22.43
2018-06-10T22:24:31.786Z,18.13
2018-06-10T22:29:33.961Z,18.40
2018-06-10T22:34:36.133Z,23.43
2018-06-10T22:39:38.324Z,21.73
2018-06-10T22:44:40.434Z,21.40
2018-06-10T22:49:42.595Z,25.13
2018-06-10T22:54:46.590Z,19.30
2018-06-10T22:59:48.773Z,25.13
2018-06-10T23:04:50.953Z,20.70
2018-06-10T23:09:53.126Z,19.43
2018-06-10T23:14:55.310Z,18.90
2018-06-10T23:19:57.481Z,18.83
2018-06-10T23:24:59.709Z,20.60
2018-06-10T23:30:01.920Z,18.40
2018-06-10T23:35:04.104Z,20.50
2018-06-10T23:40:06.754Z,20.43
2018-06-10T23:45:08.909Z,20.07
2018-06-10T23:50:11.117Z,20.00
2018-06-10T23:55:13.311Z,28.00
